1970 05P:ADA (1970003S16165)


On this page: IBTrACS data - Map and Plots - Positions - Intensities - Original source data

Summary

Start Jan 3
End Jan 19
Basin SP
LMI 85 kt
Sources jtwc_sh
bom
wellington
td9636
neumann
ds824_au
ds824_sh
In WMO? Yes
Previous storm 1970 07S (SI)
Previous in basin 1970 03P (SP)
Concurrent storms 1970 07S (SI)
1970 05P (SP)
1970 06P (SP)
1970 08S (SI)
1970 09P (SP)
1970 11S (SI)
1970 10P (SP)
Next in basin 1970 06P (SP)
Next storm 1970 06P (SP)

top of page IBTrACS Data: File Access

No storm imagery available

top of page Plots:

Map of storm track will not appear if FTP is down
Time series of cyclone Maximum Sustained Wind will not appear if FTP is down
Time series of cyclone Minimum Central Pressure will not appear if FTP is down

top of page Track Data:Position

jtwc_sh bom wellington td9636 neumann ds824_au ds824_sh
Date Lat Lon Lat Lon Lat Lon Lat Lon Lat Lon Lat Lon Lat Lon
1970-01-03 00:00:00 -15.8 165.0 -15.8 165.0 -16.0 165.0 -15.8 165.0 -15.8 165.3 -15.8 165.0 -15.8 165.0
1970-01-03 06:00:00 -16.0 164.1 -16.0 164.1 -16.1 164.3 -16.0 164.1 -15.9 164.5 -16.0 164.2 -16.0 164.1
1970-01-03 12:00:00 -16.1 163.4 -16.1 163.4 -16.2 163.6 -16.1 163.4 -16.1 163.7 -16.1 163.4 -16.1 163.4
1970-01-03 18:00:00 -16.3 162.7 -16.3 162.7 -16.4 162.9 -16.3 162.7 -16.2 163.0 -16.2 162.7 -16.3 162.7
1970-01-04 00:00:00 -16.4 162.0 -16.4 162.0 -16.7 162.2 -16.4 162.0 -16.4 162.3 -16.4 162.0 -16.4 162.0
1970-01-04 06:00:00 -16.6 161.2 -16.6 161.2 -16.9 161.5 -16.6 161.2 -16.6 161.5 -16.6 161.2 -16.6 161.2
1970-01-04 12:00:00 -16.8 160.5 -16.8 160.5 -17.0 160.8 -16.8 160.5 -16.8 160.8 -16.8 160.5 -16.8 160.5
1970-01-04 18:00:00 -16.9 159.7 -16.9 159.8 -17.0 160.0 -16.9 159.8 -16.9 160.1 -16.9 159.8 -16.9 159.7
1970-01-05 00:00:00 -17.0 159.1 -17.0 159.1 -17.0 159.3 -17.0 159.1 -17.0 159.4 -17.0 159.1 -17.0 159.1
1970-01-05 06:00:00 -17.0 158.5 -17.0 158.5 -17.0 158.6 -17.0 158.5 -17.0 158.8 -17.0 158.5 -17.0 158.5
1970-01-05 12:00:00 -17.0 157.9 -17.0 157.9 -17.0 158.1 -17.0 157.9 -17.0 158.2 -17.0 157.9 -17.0 157.9
1970-01-05 18:00:00 -16.9 157.3 -16.8 157.1 -17.0 157.7 -16.9 157.3 -16.8 157.5 -16.9 157.2 -16.9 157.3
1970-01-06 00:00:00 -16.8 156.7 -16.7 156.5 -16.9 157.4 -16.8 156.7 -16.7 156.8 -16.7 156.6 -16.8 156.7
1970-01-06 06:00:00 -16.6 156.4 -16.5 156.3 -16.8 156.9 -16.6 156.4 -16.5 156.6 -16.6 156.3 -16.6 156.4
1970-01-06 12:00:00 -16.4 156.2 -16.4 156.2 -16.7 156.5 -16.4 156.2 -16.4 156.4 -16.4 156.2 -16.4 156.2
1970-01-06 18:00:00 -16.1 156.0 -16.2 156.0 -16.4 156.2 -16.1 156.0 -16.2 156.2 -16.2 156.0 -16.1 156.0
1970-01-07 00:00:00 -15.9 155.9 -16.0 155.9 -16.0 156.0 -15.9 155.9 -16.0 156.1 -16.0 155.9 -15.9 155.9
1970-01-07 06:00:00 -15.7 155.9 -15.7 155.9 -15.7 156.0 -15.7 155.9 -15.8 156.1 -15.8 155.9 -15.7 155.9
1970-01-07 12:00:00 -15.5 155.9 -15.5 155.9 -15.5 156.0 -15.5 155.9 -15.5 156.1 -15.5 155.9 -15.5 155.9
1970-01-07 18:00:00 -15.3 156.0 -15.2 156.0 -15.2 156.0 -15.3 156.0 -15.3 156.1 -15.2 155.9 -15.3 156.0
1970-01-08 00:00:00 -15.1 156.0 -15.0 156.0 -15.0 156.0 -15.1 156.0 -15.0 156.2 -15.0 156.0 -15.1 156.0
1970-01-08 06:00:00 -14.9 156.1 -14.9 156.0 -14.8 156.1 -14.9 156.1 -14.9 156.2 -14.9 156.0 -14.9 156.1
1970-01-08 12:00:00 -14.8 156.1 -14.8 156.1 -14.6 156.2 -14.8 156.1 -14.8 156.3 -14.7 156.1 -14.8 156.1
1970-01-08 18:00:00 -14.6 156.2 -14.5 156.3 -14.3 156.4 -14.6 156.2 -14.5 156.4 -14.5 156.2 -14.6 156.2
1970-01-09 00:00:00 -14.5 156.3 -14.2 156.4 -14.1 156.6 -14.5 156.3 -14.2 156.6 -14.2 156.4 -14.5 156.3
jtwc_sh bom wellington td9636 neumann ds824_au ds824_sh
1970-01-09 06:00:00 -14.2 156.5 -14.1 156.5 -14.0 156.7 -14.2 156.5 -14.0 156.7 -14.0 156.5 -14.2 156.5
1970-01-09 12:00:00 -13.8 156.8 -13.8 156.8 -13.9 156.9 -13.8 156.8 -13.9 156.9 -13.8 156.8 -13.8 156.8
1970-01-09 18:00:00 -13.4 157.2 -13.4 157.2 -13.5 157.3 -13.4 157.2 -13.4 157.4 -13.4 157.3 -13.4 157.2
1970-01-10 00:00:00 -12.9 157.7 -12.9 157.8 -12.9 157.9 -12.9 157.7 -13.0 157.9 -12.9 157.8 -12.9 157.7
1970-01-10 06:00:00 -12.6 158.2 -12.6 158.2 -12.4 158.4 -12.6 158.2 -12.7 158.3 -12.6 158.2 -12.6 158.2
1970-01-10 12:00:00 -12.4 158.7 -12.4 158.7 -12.0 159.0 -12.4 158.7 -12.4 158.8 -12.4 158.7 -12.4 158.7
1970-01-10 18:00:00 -12.2 159.2 -12.2 159.2 -11.6 159.6 -12.2 159.2 -12.2 159.3 -12.2 159.2 -12.2 159.2
1970-01-11 00:00:00 -12.0 159.8 -12.0 159.8 -11.3 160.2 -12.0 159.8 -12.0 159.9 -12.0 159.8 -12.0 159.8
1970-01-11 06:00:00 -11.8 160.3 -11.8 160.3 -11.1 160.8 -11.8 160.3 -11.8 160.4 -11.8 160.3 -11.8 160.3
1970-01-11 12:00:00 -11.6 160.8 -11.6 160.8 -11.0 161.3 -11.6 160.8 -11.6 160.9 -11.6 160.8 -11.6 160.8
1970-01-11 18:00:00 -11.4 161.3 -11.4 161.3 -11.0 161.8 -11.4 161.3 -11.5 161.4 -11.4 161.3 -11.4 161.3
1970-01-12 00:00:00 -11.4 161.9 -11.4 161.9 -11.0 162.2 -11.4 161.9 -11.4 162.0 -11.4 161.9 -11.4 161.9
1970-01-12 06:00:00 -11.5 162.4 -11.5 162.5 -11.1 162.6 -11.5 162.5 -11.5 162.5 -11.5 162.5 -11.5 162.4
1970-01-12 12:00:00 -11.7 163.0 -11.7 163.0 -11.3 162.8 -11.7 163.0 -11.7 163.1 -11.8 163.0 -11.7 163.0
1970-01-12 18:00:00 -12.1 163.3 -12.1 163.3 -11.5 162.9 -12.0 163.3 -12.0 163.5 -12.1 163.3 -12.1 163.3
1970-01-13 00:00:00 -12.5 163.4 -12.5 163.4 -11.8 163.0 -12.5 163.4 -12.4 163.6 -12.5 163.4 -12.5 163.4
1970-01-13 06:00:00 -13.1 163.3 -13.0 163.3 -12.4 163.1 -13.0 163.3 -12.9 163.4 -13.0 163.3 -13.1 163.3
1970-01-13 12:00:00 -13.6 163.1 -13.6 163.1 -13.0 163.0 -13.6 163.1 -13.5 163.3 -13.6 163.0 -13.6 163.1
1970-01-13 18:00:00 -14.0 162.7 -14.0 162.7 -13.5 162.6 -14.0 162.7 -13.9 162.9 -14.0 162.7 -14.0 162.7
1970-01-14 00:00:00 -14.4 162.3 -14.4 162.3 -14.0 162.0 -14.4 162.3 -14.3 162.6 -14.4 162.3 -14.4 162.3
1970-01-14 06:00:00 -14.8 161.8 -14.8 161.9 -14.4 161.6 -14.8 161.9 -14.7 162.1 -14.9 161.8 -14.8 161.8
1970-01-14 12:00:00 -15.3 161.3 -15.3 161.3 -14.9 161.0 -15.3 161.3 -15.2 161.6 -15.3 161.3 -15.3 161.3
1970-01-14 18:00:00 -15.6 160.9 -15.6 160.8 -15.5 160.1 -15.6 160.8 -15.5 161.0 -15.6 160.7 -15.6 160.9
1970-01-15 00:00:00 -16.0 160.0 -16.0 160.1 -16.2 159.0 -16.0 160.1 -15.9 160.4 -16.0 160.0 -16.0 160.0
jtwc_sh bom wellington td9636 neumann ds824_au ds824_sh
1970-01-15 06:00:00 -16.7 158.9 -16.6 159.0 -16.9 158.0 -16.6 159.0 -16.5 159.3 -16.6 159.0 -16.7 158.9
1970-01-15 12:00:00 -17.3 157.8 -17.3 157.8 -17.5 157.0 -17.3 157.8 -17.2 158.2 -17.3 157.8 -17.3 157.8
1970-01-15 18:00:00 -17.8 156.7 -17.8 156.7 -18.0 155.8 -17.8 156.7 -17.7 157.1 -17.8 156.7 -17.8 156.7
1970-01-16 00:00:00 -18.3 155.6 -18.3 155.6 -18.5 154.6 -18.3 155.6 -18.2 156.0 -18.3 155.6 -18.3 155.6
1970-01-16 06:00:00 -18.6 154.5 -18.7 154.6 -18.9 153.3 -18.6 154.5 -18.6 154.9 -18.7 154.5 -18.6 154.5
1970-01-16 12:00:00 -19.0 153.3 -19.0 153.3 -19.3 152.0 -19.0 153.3 -18.9 153.7 -19.0 153.3 -19.0 153.3
1970-01-16 18:00:00 -19.3 152.0 -19.3 151.9 -19.7 150.8 -19.3 152.0 -19.3 152.4 -19.3 152.1 -19.3 152.0
1970-01-17 00:00:00 -19.7 150.8 -19.6 150.8 -20.0 149.8 -19.6 150.8 -19.6 151.2 -19.6 150.9 -19.7 150.8
1970-01-17 06:00:00 -19.8 149.9 -19.8 149.9 -20.1 149.3 -19.8 149.9 -19.7 150.3 -19.7 149.9 -19.8 149.9
1970-01-17 12:00:00 -20.0 149.2 -19.9 149.2 -20.1 149.0 -19.9 149.2 -19.9 149.5 -19.9 149.2 -20.0 149.2
1970-01-17 18:00:00 -20.2 148.9 -20.2 148.9 -20.3 148.7 -20.2 148.8 -20.2 149.1 -20.3 148.9 -20.2 148.9
1970-01-18 00:00:00 -20.5 148.7 -20.5 148.7 -20.5 148.5 -20.5 148.7 -20.5 148.9 -20.6 148.7 -20.5 148.7
1970-01-18 06:00:00 -20.8 148.6 -20.9 148.5 -20.8 148.4 -20.9 148.6 -20.8 148.7 -20.9 148.5 -20.8 148.6
1970-01-18 12:00:00 -21.1 148.5 -21.0 148.5 -21.1 148.5 -21.1 148.7
1970-01-18 18:00:00 -21.1 148.6
1970-01-19 00:00:00 -21.2 148.8

top of pageTrack Data:Intensity

jtwc_sh bom wellington td9636 neumann ds824_au ds824_sh
Date Wind Pres Wind Pres Wind Pres Wind Pres Wind Pres Wind Pres Wind Pres
1970-01-03 00:00:00 10. 1002. 30. 997. 10. 25. 1002. 25. 1002. 10.
1970-01-03 06:00:00 15. 1002. 30. 997. 15. 25. 1002. 25. 1002. 15.
1970-01-03 12:00:00 15. 1002. 30. 997. 15. 25. 1002. 25. 1002. 15.
1970-01-03 18:00:00 10. 1002. 30. 997. 10. 25. 1002. 25. 1002. 10.
1970-01-04 00:00:00 10. 1002. 30. 997. 10. 25. 1002. 25. 1002. 10.
1970-01-04 06:00:00 10. 1002. 30. 997. 15. 25. 1002. 25. 1002. 10.
1970-01-04 12:00:00 15. 1002. 30. 997. 15. 25. 1002. 25. 1002. 15.
1970-01-04 18:00:00 20. 1002. 30. 997. 25. 25. 1002. 25. 1002. 20.
1970-01-05 00:00:00 25. 1002. 30. 997. 25. 25. 1002. 25. 1002. 25.
1970-01-05 06:00:00 20. 1002. 30. 997. 20. 25. 1002. 25. 1002. 20.
1970-01-05 12:00:00 20. 1002. 30. 997. 20. 25. 1002. 25. 1002. 20.
1970-01-05 18:00:00 25. 1003. 30. 997. 25. 25. 1002. 25. 1002. 25.
1970-01-06 00:00:00 25. 1003. 30. 997. 25. 25. 1003. 25. 1003. 25.
1970-01-06 06:00:00 30. 1003. 30. 997. 30. 25. 1003. 25. 1003. 30.
1970-01-06 12:00:00 30. 1003. 30. 997. 30. 25. 1003. 25. 1003. 30.
1970-01-06 18:00:00 20. 1004. 30. 997. 15. 25. 1003. 25. 1003. 20.
1970-01-07 00:00:00 15. 1004. 30. 997. 15. 20. 1004. 20. 1004. 15.
1970-01-07 06:00:00 20. 1004. 30. 997. 20. 20. 1004. 20. 1004. 20.
1970-01-07 12:00:00 20. 1004. 30. 997. 20. 20. 1004. 20. 1004. 20.
1970-01-07 18:00:00 20. 1004. 30. 997. 20. 20. 1004. 20. 1004. 20.
1970-01-08 00:00:00 20. 1004. 30. 997. 20. 20. 1004. 20. 1004. 20.
1970-01-08 06:00:00 15. 1004. 30. 997. 15. 20. 1004. 20. 1004. 15.
1970-01-08 12:00:00 15. 1004. 30. 997. 15. 20. 1004. 20. 1004. 15.
1970-01-08 18:00:00 15. 1004. 30. 997. 15. 20. 1004. 20. 1004. 15.
1970-01-09 00:00:00 15. 1004. 30. 997. 15. 20. 1004. 20. 1004. 15.
jtwc_sh bom wellington td9636 neumann ds824_au ds824_sh
1970-01-09 06:00:00 15. 1004. 30. 997. 15. 20. 1004. 20. 1004. 15.
1970-01-09 12:00:00 15. 1004. 30. 997. 15. 20. 1004. 20. 1004. 15.
1970-01-09 18:00:00 20. 1004. 30. 997. 20. 20. 1004. 20. 1004. 20.
1970-01-10 00:00:00 20. 1004. 30. 997. 20. 20. 1004. 20. 1004. 20.
1970-01-10 06:00:00 20. 1004. 30. 997. 20. 20. 1004. 20. 1004. 20.
1970-01-10 12:00:00 20. 1004. 30. 997. 20. 20. 1004. 20. 1004. 20.
1970-01-10 18:00:00 20. 1004. 30. 997. 20. 20. 1004. 20. 1004. 20.
1970-01-11 00:00:00 20. 1004. 30. 997. 20. 20. 1004. 20. 1004. 20.
1970-01-11 06:00:00 25. 1004. 30. 997. 30. 20. 1004. 20. 1004. 25.
1970-01-11 12:00:00 30. 1004. 30. 997. 30. 20. 1004. 20. 1004. 30.
1970-01-11 18:00:00 20. 1004. 30. 997. 10. 20. 1004. 20. 1004. 20.
1970-01-12 00:00:00 10. 1004. 30. 997. 10. 20. 1004. 20. 1004. 10.
1970-01-12 06:00:00 15. 1004. 30. 997. 20. 20. 1004. 20. 1004. 15.
1970-01-12 12:00:00 20. 1004. 30. 997. 20. 20. 1004. 20. 1004. 20.
1970-01-12 18:00:00 15. 1004. 30. 997. 15. 20. 1004. 20. 1004. 15.
1970-01-13 00:00:00 15. 1004. 30. 997. 15. 20. 1004. 20. 1004. 15.
1970-01-13 06:00:00 15. 1004. 30. 997. 15. 20. 1004. 20. 1004. 15.
1970-01-13 12:00:00 15. 1004. 30. 997. 15. 20. 1004. 20. 1004. 15.
1970-01-13 18:00:00 10. 1004. 30. 997. 10. 20. 1004. 20. 1004. 10.
1970-01-14 00:00:00 10. 1004. 30. 997. 10. 20. 1004. 20. 1004. 10.
1970-01-14 06:00:00 10. 1004. 30. 997. 10. 20. 1004. 20. 1004. 10.
1970-01-14 12:00:00 10. 1004. 30. 997. 10. 20. 1004. 20. 1004. 10.
1970-01-14 18:00:00 10. 1004. 30. 997. 15. 20. 1004. 20. 1004. 10.
1970-01-15 00:00:00 15. 1004. 40. 990. 15. 20. 1004. 20. 1004. 15.
jtwc_sh bom wellington td9636 neumann ds824_au ds824_sh
1970-01-15 06:00:00 25. 1004. 40. 990. 30. 20. 1004. 20. 1004. 25.
1970-01-15 12:00:00 30. 1004. 40. 990. 30. 20. 1004. 20. 1004. 30.
1970-01-15 18:00:00 25. 1004. 40. 990. 20. 20. 1004. 20. 1004. 25.
1970-01-16 00:00:00 20. 1004. 40. 990. 20. 20. 1004. 20. 1004. 20.
1970-01-16 06:00:00 25. 996. 40. 990. 30. 35. 998. 20. 1004. 25.
1970-01-16 12:00:00 30. 992. 55. 980. 30. 45. 992. 45. 992. 30.
1970-01-16 18:00:00 35. 985. 55. 980. 40. 60. 980. 45. 992. 35.
1970-01-17 00:00:00 40. 972. 65. 970. 40. 70. 972. 70. 972. 40.
1970-01-17 06:00:00 40. 963. 65. 970. 40. 80. 967. 70. 972. 40.
1970-01-17 12:00:00 55. 963. 70. 965. 40. 85. 963. 80. 962. 55.
1970-01-17 18:00:00 70. 962. 70. 965. 70. 85. 962. 80. 962. 70.
1970-01-18 00:00:00 70. 964. 65. 970. 70. 80. 964. 80. 964. 70.
1970-01-18 06:00:00 70. 982. 65. 970. 70. 55. 982. 55. 982. 70.
1970-01-18 12:00:00 998. 55. 980. 70. 45. 998.
1970-01-18 18:00:00 55. 980.
1970-01-19 00:00:00 40. 990.

top of page Links to source data

Source Source file Format
jtwc_sh bsh051970.txt ATCF
bom IDCKMSTM0S.csv:Line=5463:ADA CSV file (from Excel file)
wellington TC_BT_1967_2006.csv:Line=20:ADA Text table
td9636 cons_worldwide_trop_cyclone_18710101-19891231-006:Line=8295 TD 9636
neumann tracks.sh:Storm=255:ADA:BSH0570:BM383 HURDAT
ds824_au aus_area.dat:443:ADA HURDAT
ds824_sh s_hem.dat:1108:05P HURDAT